createdAt,value
2018-03-17T00:00:15.375Z,10.53
2018-03-17T00:02:43.487Z,9.80
2018-03-17T00:05:11.626Z,11.20
2018-03-17T00:07:39.732Z,10.60
2018-03-17T00:10:07.941Z,8.97
2018-03-17T00:12:36.044Z,9.77
2018-03-17T00:15:04.197Z,11.23
2018-03-17T00:17:33.175Z,9.37
2018-03-17T00:20:01.318Z,10.43
2018-03-17T00:22:29.436Z,11.70
2018-03-17T00:24:58.347Z,10.40
2018-03-17T00:27:26.456Z,9.73
2018-03-17T00:29:54.592Z,9.17
2018-03-17T00:32:22.713Z,7.33
2018-03-17T00:34:50.832Z,7.23
2018-03-17T00:37:18.951Z,9.20
2018-03-17T00:39:47.853Z,8.20
2018-03-17T00:42:15.977Z,9.50
2018-03-17T00:44:44.117Z,8.10
2018-03-17T00:47:12.342Z,9.50
2018-03-17T00:49:40.485Z,9.20
2018-03-17T00:52:09.365Z,9.97
2018-03-17T00:54:38.280Z,10.67
2018-03-17T00:57:06.401Z,10.87
2018-03-17T00:59:34.537Z,10.43
2018-03-17T01:02:02.639Z,11.27
2018-03-17T01:04:30.789Z,10.13
2018-03-17T01:06:58.913Z,8.70
2018-03-17T01:09:27.044Z,10.03
2018-03-17T01:11:55.160Z,10.37
2018-03-17T01:14:23.317Z,10.30
2018-03-17T01:16:51.445Z,10.70
2018-03-17T01:19:19.586Z,12.60
2018-03-17T01:21:47.729Z,10.73
2018-03-17T01:24:15.839Z,11.40
2018-03-17T01:26:44.747Z,9.90
2018-03-17T01:29:12.853Z,9.70
2018-03-17T01:31:40.990Z,9.33
2018-03-17T01:34:09.115Z,10.77
2018-03-17T01:36:37.258Z,11.40
2018-03-17T01:39:05.377Z,11.37
2018-03-17T01:41:33.517Z,10.40
2018-03-17T01:44:01.646Z,9.90
2018-03-17T01:46:29.804Z,9.10
2018-03-17T01:48:57.911Z,8.07
2018-03-17T01:51:26.057Z,7.97
2018-03-17T01:54:06.729Z,10.40
2018-03-17T01:56:35.632Z,8.40
2018-03-17T01:59:03.756Z,10.20
2018-03-17T02:01:31.889Z,9.00
2018-03-17T02:04:00.005Z,10.70
2018-03-17T02:06:28.145Z,9.90
2018-03-17T02:08:56.252Z,8.83
2018-03-17T02:11:24.398Z,9.20
2018-03-17T02:13:52.563Z,9.50
2018-03-17T02:16:20.694Z,9.70
2018-03-17T02:18:48.810Z,10.20
2018-03-17T02:21:16.948Z,9.53
2018-03-17T02:23:45.824Z,10.43
2018-03-17T02:26:13.974Z,9.37
2018-03-17T02:28:42.095Z,9.17
2018-03-17T02:31:10.240Z,8.90
2018-03-17T02:33:38.367Z,8.87
2018-03-17T02:36:06.501Z,8.97
2018-03-17T02:38:34.603Z,9.63
2018-03-17T02:41:02.753Z,9.10
2018-03-17T02:43:31.644Z,9.07
2018-03-17T02:46:00.548Z,10.43
2018-03-17T02:48:28.662Z,9.47
2018-03-17T02:50:56.807Z,9.20
2018-03-17T02:53:24.931Z,9.93
2018-03-17T02:55:53.068Z,10.13
2018-03-17T02:58:21.186Z,8.90
2018-03-17T03:00:49.350Z,8.63
2018-03-17T03:03:17.466Z,8.80
2018-03-17T03:05:46.373Z,7.93
2018-03-17T03:08:14.494Z,7.70
2018-03-17T03:10:42.637Z,6.20
2018-03-17T03:13:10.758Z,8.53
2018-03-17T03:15:38.889Z,7.93
2018-03-17T03:18:07.000Z,10.70
2018-03-17T03:20:35.142Z,9.03
2018-03-17T03:23:03.248Z,9.17
2018-03-17T03:25:31.387Z,7.80
2018-03-17T03:27:59.509Z,8.30
2018-03-17T03:30:28.532Z,8.43
2018-03-17T03:32:56.649Z,8.63
2018-03-17T03:35:24.765Z,9.47
2018-03-17T03:37:52.905Z,9.50
2018-03-17T03:40:22.520Z,7.77
2018-03-17T03:42:50.656Z,6.87
2018-03-17T03:45:18.760Z,8.23
2018-03-17T03:47:46.910Z,9.23
2018-03-17T03:50:15.034Z,8.00
2018-03-17T03:52:43.174Z,7.50
2018-03-17T03:55:11.293Z,8.00
2018-03-17T03:57:39.427Z,7.20
2018-03-17T04:00:08.328Z,7.67
2018-03-17T04:02:36.455Z,8.43
2018-03-17T04:05:04.583Z,6.47
2018-03-17T04:07:33.489Z,6.77
2018-03-17T04:10:01.607Z,7.40
2018-03-17T04:12:29.743Z,7.80
2018-03-17T04:14:57.864Z,8.37
2018-03-17T04:17:25.994Z,8.17
2018-03-17T04:19:54.104Z,8.77
2018-03-17T04:22:22.271Z,8.60
2018-03-17T04:24:50.388Z,6.40
2018-03-17T04:27:19.298Z,7.87
2018-03-17T04:29:47.404Z,6.23
2018-03-17T04:32:15.546Z,8.27
2018-03-17T04:34:43.666Z,8.00
2018-03-17T04:37:11.801Z,6.50
2018-03-17T04:39:39.912Z,5.20
2018-03-17T04:42:08.042Z,7.43
2018-03-17T04:44:36.150Z,9.00
2018-03-17T04:47:05.020Z,8.57
2018-03-17T04:49:33.164Z,7.80
2018-03-17T04:52:01.297Z,8.80
2018-03-17T04:54:30.925Z,8.30
2018-03-17T04:56:59.826Z,9.60
2018-03-17T04:59:28.704Z,8.83
2018-03-17T05:01:57.718Z,9.00
2018-03-17T05:04:25.841Z,8.80
2018-03-17T05:06:53.997Z,7.80
2018-03-17T05:09:22.107Z,7.77
2018-03-17T05:11:50.286Z,8.33
2018-03-17T05:14:18.384Z,8.67
2018-03-17T05:16:46.541Z,9.10
2018-03-17T05:19:15.422Z,8.37
2018-03-17T05:21:43.559Z,7.50
2018-03-17T05:24:11.733Z,7.40
2018-03-17T05:26:39.952Z,9.03
2018-03-17T05:29:08.839Z,8.47
2018-03-17T05:31:36.985Z,7.43
2018-03-17T05:34:05.107Z,8.10
2018-03-17T05:36:33.246Z,9.10
2018-03-17T05:39:01.373Z,6.20
2018-03-17T05:41:29.509Z,6.67
2018-03-17T05:43:59.378Z,6.83
2018-03-17T05:46:28.303Z,7.97
2018-03-17T05:48:56.426Z,6.93
2018-03-17T05:51:24.559Z,5.67
2018-03-17T05:53:53.455Z,7.60
2018-03-17T05:56:22.345Z,6.13
2018-03-17T05:58:51.258Z,6.60
2018-03-17T06:01:19.372Z,6.40
2018-03-17T06:03:47.513Z,6.50
2018-03-17T06:06:15.624Z,6.37
2018-03-17T06:08:44.541Z,7.70
2018-03-17T06:11:13.415Z,6.13
2018-03-17T06:13:41.570Z,6.70
2018-03-17T06:16:09.682Z,5.97
2018-03-17T06:18:38.595Z,5.90
2018-03-17T06:21:06.735Z,7.30
2018-03-17T06:23:34.915Z,6.40
2018-03-17T06:26:03.850Z,6.50
2018-03-17T06:28:38.347Z,7.20
2018-03-17T06:31:07.241Z,6.73
2018-03-17T06:33:35.379Z,5.13
2018-03-17T06:36:06.577Z,6.87
2018-03-17T06:38:34.723Z,5.73
2018-03-17T06:41:03.595Z,5.77
2018-03-17T06:43:31.733Z,7.87
2018-03-17T06:45:59.841Z,6.30
2018-03-17T06:48:28.501Z,6.10
2018-03-17T06:50:56.614Z,7.27
2018-03-17T06:53:24.744Z,5.27
2018-03-17T06:55:52.869Z,7.00
2018-03-17T06:58:21.782Z,7.43
2018-03-17T07:00:49.884Z,8.33
2018-03-17T07:03:18.069Z,6.83
2018-03-17T07:05:46.279Z,5.90
2018-03-17T07:08:15.176Z,7.60
2018-03-17T07:10:44.061Z,5.90
2018-03-17T07:13:12.964Z,6.47
2018-03-17T07:15:41.837Z,7.03
2018-03-17T07:18:10.007Z,6.00
2018-03-17T07:20:38.127Z,7.20
2018-03-17T07:23:06.295Z,7.40
2018-03-17T07:25:34.409Z,7.67
2018-03-17T07:28:02.641Z,7.20
2018-03-17T07:30:30.847Z,6.50
2018-03-17T07:32:58.991Z,7.40
2018-03-17T07:35:27.116Z,7.93
2018-03-17T07:37:55.303Z,8.07
2018-03-17T07:40:23.404Z,6.10
2018-03-17T07:42:51.553Z,5.93
2018-03-17T07:45:20.451Z,6.33
2018-03-17T07:47:48.597Z,7.43
2018-03-17T07:50:16.704Z,5.00
2018-03-17T07:52:44.941Z,6.77
2018-03-17T07:55:13.470Z,8.30
2018-03-17T07:57:41.609Z,9.70
2018-03-17T08:00:09.727Z,6.10
2018-03-17T08:02:37.887Z,7.37
2018-03-17T08:05:06.318Z,8.10
2018-03-17T08:07:35.261Z,7.57
2018-03-17T08:10:03.382Z,7.77
2018-03-17T08:12:31.545Z,5.90
2018-03-17T08:14:59.673Z,5.20
2018-03-17T08:17:28.573Z,8.00
2018-03-17T08:19:56.687Z,8.27
2018-03-17T08:22:24.882Z,6.43
2018-03-17T08:24:52.976Z,7.83
2018-03-17T08:27:21.884Z,7.40
2018-03-17T08:29:50.077Z,7.33
2018-03-17T08:32:18.278Z,7.63
2018-03-17T08:34:46.408Z,7.73
2018-03-17T08:37:14.528Z,6.70
2018-03-17T08:39:42.661Z,5.93
2018-03-17T08:42:10.833Z,6.40
2018-03-17T08:44:38.976Z,7.47
2018-03-17T08:47:07.867Z,6.70
2018-03-17T08:49:36.786Z,6.57
2018-03-17T08:52:05.071Z,7.93
2018-03-17T08:54:33.277Z,6.13
2018-03-17T08:57:01.428Z,7.87
2018-03-17T08:59:29.685Z,7.90
2018-03-17T09:01:57.805Z,7.10
2018-03-17T09:04:25.954Z,7.00
2018-03-17T09:06:55.871Z,6.83
2018-03-17T09:09:24.021Z,7.30
2018-03-17T09:11:52.133Z,7.57
2018-03-17T09:14:21.297Z,6.50
2018-03-17T09:16:49.412Z,7.10
2018-03-17T09:19:17.547Z,6.90
2018-03-17T09:21:45.695Z,6.87
2018-03-17T09:24:13.846Z,7.53
2018-03-17T09:26:41.974Z,5.70
2018-03-17T09:29:10.221Z,7.00
2018-03-17T09:31:40.143Z,6.80
2018-03-17T09:34:08.285Z,6.83
2018-03-17T09:36:36.995Z,7.00
2018-03-17T09:39:05.124Z,5.80
2018-03-17T09:41:33.253Z,6.33
2018-03-17T09:44:02.165Z,6.50
2018-03-17T09:46:30.285Z,6.60
2018-03-17T09:48:58.427Z,6.83
2018-03-17T09:51:26.547Z,7.07
2018-03-17T09:53:55.670Z,6.87
2018-03-17T09:56:24.549Z,6.83
2018-03-17T09:58:53.461Z,7.00
2018-03-17T10:01:21.576Z,7.00
2018-03-17T10:03:49.716Z,7.60
2018-03-17T10:06:17.827Z,7.33
2018-03-17T10:08:45.965Z,7.33
2018-03-17T10:11:14.081Z,7.80
2018-03-17T10:13:42.226Z,7.47
2018-03-17T10:16:10.337Z,8.23
2018-03-17T10:18:38.492Z,7.67
2018-03-17T10:21:06.626Z,7.60
2018-03-17T10:23:34.830Z,8.20
2018-03-17T10:26:02.925Z,7.30
2018-03-17T10:28:31.180Z,7.20
2018-03-17T10:30:59.396Z,8.10
2018-03-17T10:33:27.550Z,7.50
2018-03-17T10:35:55.679Z,7.63
2018-03-17T10:38:23.809Z,7.53
2018-03-17T10:40:51.930Z,6.53
2018-03-17T10:43:20.078Z,5.97
2018-03-17T10:45:48.954Z,7.60
2018-03-17T10:48:17.861Z,6.60
2018-03-17T10:50:45.988Z,6.20
2018-03-17T10:53:14.111Z,5.33
2018-03-17T10:55:42.233Z,6.10
2018-03-17T10:58:10.401Z,6.70
2018-03-17T11:00:44.187Z,5.87
2018-03-17T11:03:12.336Z,8.97
2018-03-17T11:05:40.451Z,5.90
2018-03-17T11:08:08.593Z,7.47
2018-03-17T11:10:36.704Z,6.87
2018-03-17T11:13:04.835Z,6.93
2018-03-17T11:15:32.987Z,7.23
2018-03-17T11:18:01.882Z,5.73
2018-03-17T11:20:30.785Z,6.43
2018-03-17T11:22:58.945Z,6.77
2018-03-17T11:25:27.070Z,7.80
2018-03-17T11:27:55.712Z,6.83
2018-03-17T11:30:24.612Z,7.50
2018-03-17T11:32:52.725Z,8.37
2018-03-17T11:35:20.865Z,6.87
2018-03-17T11:37:49.321Z,6.07
2018-03-17T11:40:18.241Z,7.03
2018-03-17T11:42:46.361Z,7.47
2018-03-17T11:45:14.509Z,7.80
2018-03-17T11:47:42.633Z,7.67
2018-03-17T11:50:11.542Z,7.33
2018-03-17T11:52:39.671Z,7.20
2018-03-17T11:55:07.851Z,8.57
2018-03-17T11:57:35.937Z,8.10
2018-03-17T12:00:04.120Z,7.00
2018-03-17T12:02:35.030Z,6.60
2018-03-17T12:05:03.161Z,8.00
2018-03-17T12:07:31.283Z,6.83
2018-03-17T12:09:59.445Z,8.10
2018-03-17T12:12:27.549Z,7.67
2018-03-17T12:14:55.684Z,7.17
2018-03-17T12:17:23.800Z,6.57
2018-03-17T12:19:52.710Z,7.40
2018-03-17T12:22:20.882Z,7.57
2018-03-17T12:24:48.984Z,6.60
2018-03-17T12:27:17.102Z,6.13
2018-03-17T12:29:45.258Z,7.07
2018-03-17T12:32:13.377Z,7.33
2018-03-17T12:34:41.535Z,6.60
2018-03-17T12:37:10.403Z,8.53
2018-03-17T12:39:39.328Z,5.70
2018-03-17T12:42:07.463Z,6.13
2018-03-17T12:44:35.604Z,5.83
2018-03-17T12:47:03.717Z,7.77
2018-03-17T12:49:31.881Z,6.77
2018-03-17T12:52:00.001Z,6.50
2018-03-17T12:54:28.158Z,7.00
2018-03-17T12:56:57.028Z,7.00
2018-03-17T12:59:25.183Z,7.30
2018-03-17T13:01:53.438Z,7.30
2018-03-17T13:04:22.494Z,6.80
2018-03-17T13:06:51.386Z,6.80
2018-03-17T13:09:20.333Z,7.67
2018-03-17T13:11:48.483Z,7.30
2018-03-17T13:14:16.640Z,6.40
2018-03-17T13:16:44.765Z,6.30
2018-03-17T13:19:24.851Z,7.63
2018-03-17T13:21:52.946Z,6.57
2018-03-17T13:24:21.092Z,5.93
2018-03-17T13:27:00.984Z,7.50
2018-03-17T13:29:29.143Z,5.60
2018-03-17T13:31:57.265Z,7.10
2018-03-17T13:34:25.436Z,6.30
2018-03-17T13:37:05.336Z,5.80
2018-03-17T13:39:33.481Z,8.70
2018-03-17T13:42:01.589Z,5.47
2018-03-17T13:44:29.725Z,7.07
2018-03-17T13:46:58.500Z,7.20
2018-03-17T13:49:26.645Z,6.63
2018-03-17T13:51:54.810Z,7.60
2018-03-17T13:54:22.947Z,7.00
2018-03-17T13:56:51.068Z,6.73
2018-03-17T13:59:19.202Z,7.27
2018-03-17T14:01:48.093Z,7.90
2018-03-17T14:04:16.989Z,7.63
2018-03-17T14:06:45.941Z,7.60
2018-03-17T14:09:14.097Z,4.93
2018-03-17T14:11:42.212Z,6.50
2018-03-17T14:14:10.347Z,7.70
2018-03-17T14:16:38.482Z,7.40
2018-03-17T14:19:07.388Z,6.70
2018-03-17T14:21:35.525Z,7.10
2018-03-17T14:24:03.693Z,8.13
2018-03-17T14:26:31.828Z,7.40
2018-03-17T14:28:59.953Z,7.10
2018-03-17T14:31:28.080Z,6.17
2018-03-17T14:33:56.192Z,7.80
2018-03-17T14:36:24.337Z,8.10
2018-03-17T14:38:52.459Z,6.90
2018-03-17T14:41:21.368Z,7.57
2018-03-17T14:43:49.476Z,8.00
2018-03-17T14:46:17.639Z,7.30
2018-03-17T14:48:45.767Z,8.33
2018-03-17T14:51:14.673Z,6.37
2018-03-17T14:53:42.815Z,7.50
2018-03-17T14:56:10.962Z,5.90
2018-03-17T14:58:39.093Z,7.10
2018-03-17T15:01:07.229Z,7.53
2018-03-17T15:03:35.348Z,7.70
2018-03-17T15:06:03.548Z,5.60
2018-03-17T15:08:31.678Z,6.10
2018-03-17T15:11:00.575Z,7.00
2018-03-17T15:13:28.685Z,6.90
2018-03-17T15:15:56.824Z,6.77
2018-03-17T15:18:24.944Z,7.30
2018-03-17T15:20:53.108Z,6.63
2018-03-17T15:23:21.221Z,7.50
2018-03-17T15:25:49.387Z,7.20
2018-03-17T15:28:17.513Z,6.77
2018-03-17T15:30:45.718Z,6.40
2018-03-17T15:33:13.833Z,6.30
2018-03-17T15:35:41.964Z,7.10
2018-03-17T15:38:10.090Z,7.00
2018-03-17T15:40:38.244Z,6.40
2018-03-17T15:43:07.130Z,7.97
2018-03-17T15:45:36.041Z,8.60
2018-03-17T15:48:04.162Z,8.20
2018-03-17T15:50:32.317Z,5.80
2018-03-17T15:53:00.423Z,6.63
2018-03-17T15:55:28.551Z,6.70
2018-03-17T15:57:56.678Z,6.07
2018-03-17T16:00:24.869Z,7.30
2018-03-17T16:02:53.754Z,7.30
2018-03-17T16:05:22.664Z,7.23
2018-03-17T16:07:50.848Z,8.00
2018-03-17T16:10:19.005Z,6.90
2018-03-17T16:12:47.909Z,7.60
2018-03-17T16:15:16.040Z,9.40
2018-03-17T16:17:44.171Z,8.20
2018-03-17T16:20:12.366Z,6.40
2018-03-17T16:22:40.517Z,7.80
2018-03-17T16:25:08.679Z,7.13
2018-03-17T16:27:36.797Z,6.67
2018-03-17T16:30:04.934Z,6.73
2018-03-17T16:32:33.116Z,8.00
2018-03-17T16:35:01.281Z,7.67
2018-03-17T16:37:29.394Z,7.73
2018-03-17T16:39:57.541Z,8.20
2018-03-17T16:42:25.674Z,7.80
2018-03-17T16:44:54.578Z,6.90
2018-03-17T16:47:22.798Z,7.70
2018-03-17T16:49:50.923Z,6.80
2018-03-17T16:52:19.098Z,8.77
2018-03-17T16:54:47.225Z,8.20
2018-03-17T16:57:15.365Z,7.93
2018-03-17T16:59:43.470Z,5.83
2018-03-17T17:02:11.609Z,8.30
2018-03-17T17:04:39.727Z,7.10
2018-03-17T17:07:07.915Z,7.50
2018-03-17T17:09:36.792Z,6.53
2018-03-17T17:12:04.949Z,6.90
2018-03-17T17:14:33.069Z,6.90
2018-03-17T17:17:01.977Z,8.07
2018-03-17T17:19:30.089Z,7.50
2018-03-17T17:21:58.237Z,7.47
2018-03-17T17:24:26.364Z,7.60
2018-03-17T17:26:54.646Z,7.40
2018-03-17T17:29:22.804Z,6.43
2018-03-17T17:31:50.945Z,6.40
2018-03-17T17:34:19.064Z,7.93
2018-03-17T17:36:47.967Z,6.63
2018-03-17T17:39:16.865Z,7.67
2018-03-17T17:41:45.763Z,6.60
2018-03-17T17:44:13.888Z,7.07
2018-03-17T17:46:42.020Z,6.83
2018-03-17T17:49:10.887Z,6.60
2018-03-17T17:51:39.484Z,5.30
2018-03-17T17:54:07.893Z,7.17
2018-03-17T17:56:36.052Z,8.73
2018-03-17T17:59:04.147Z,5.80
2018-03-17T18:01:32.293Z,8.40
2018-03-17T18:04:00.422Z,4.53
2018-03-17T18:06:28.574Z,7.20
2018-03-17T18:08:56.680Z,7.70
2018-03-17T18:11:24.829Z,7.80
2018-03-17T18:13:52.964Z,7.00
2018-03-17T18:16:21.107Z,8.47
2018-03-17T18:18:50.003Z,8.13
2018-03-17T18:21:18.177Z,8.63
2018-03-17T18:23:47.431Z,9.10
2018-03-17T18:26:15.577Z,8.60
2018-03-17T18:28:43.692Z,7.40
2018-03-17T18:31:11.845Z,8.10
2018-03-17T18:33:39.972Z,7.47
2018-03-17T18:36:08.872Z,7.83
2018-03-17T18:38:36.990Z,8.80
2018-03-17T18:41:05.115Z,7.87
2018-03-17T18:43:33.247Z,7.50
2018-03-17T18:46:01.397Z,8.03
2018-03-17T18:48:29.507Z,8.03
2018-03-17T18:50:57.651Z,8.07
2018-03-17T18:53:25.755Z,6.73
2018-03-17T18:55:53.904Z,7.73
2018-03-17T18:58:22.026Z,7.10
2018-03-17T19:00:50.196Z,8.20
2018-03-17T19:03:19.100Z,8.30
2018-03-17T19:05:47.968Z,9.40
2018-03-17T19:08:16.850Z,8.53
2018-03-17T19:10:44.997Z,7.10
2018-03-17T19:13:13.112Z,9.27
2018-03-17T19:15:42.033Z,8.97
2018-03-17T19:18:10.191Z,6.33
2018-03-17T19:20:38.320Z,10.10
2018-03-17T19:23:06.477Z,8.40
2018-03-17T19:25:34.590Z,9.37
2018-03-17T19:28:03.500Z,9.00
2018-03-17T19:30:31.641Z,7.10
2018-03-17T19:32:59.778Z,10.90
2018-03-17T19:35:27.906Z,8.80
2018-03-17T19:37:56.823Z,9.40
2018-03-17T19:40:25.419Z,8.67
2018-03-17T19:42:53.616Z,10.40
2018-03-17T19:45:21.787Z,9.37
2018-03-17T19:47:49.996Z,7.70
2018-03-17T19:50:18.171Z,9.37
2018-03-17T19:52:47.081Z,8.70
2018-03-17T19:55:15.205Z,8.33
2018-03-17T19:57:43.579Z,9.87
2018-03-17T20:00:11.770Z,8.10
2018-03-17T20:02:40.287Z,7.60
2018-03-17T20:05:08.450Z,9.20
2018-03-17T20:07:37.487Z,8.33
2018-03-17T20:10:05.746Z,8.20
2018-03-17T20:12:33.906Z,8.73
2018-03-17T20:15:02.810Z,8.33
2018-03-17T20:17:30.979Z,8.80
2018-03-17T20:19:59.103Z,8.57
2018-03-17T20:22:27.258Z,8.17
2018-03-17T20:24:55.510Z,9.10
2018-03-17T20:27:23.662Z,7.90
2018-03-17T20:29:52.637Z,9.03
2018-03-17T20:32:20.801Z,8.17
2018-03-17T20:34:48.922Z,7.60
2018-03-17T20:37:17.123Z,7.23
2018-03-17T20:39:45.224Z,10.13
2018-03-17T20:42:13.360Z,6.63
2018-03-17T20:44:41.482Z,8.20
2018-03-17T20:47:09.684Z,8.77
2018-03-17T20:49:39.075Z,9.07
2018-03-17T20:52:07.311Z,7.60
2018-03-17T20:54:35.449Z,8.07
2018-03-17T20:57:03.594Z,7.77
2018-03-17T20:59:32.494Z,8.10
2018-03-17T21:02:01.403Z,8.30
2018-03-17T21:04:29.513Z,8.87
2018-03-17T21:06:57.751Z,8.20
2018-03-17T21:09:25.874Z,8.77
2018-03-17T21:11:54.021Z,7.30
2018-03-17T21:14:22.196Z,7.40
2018-03-17T21:16:50.341Z,8.27
2018-03-17T21:19:18.456Z,6.23
2018-03-17T21:21:46.642Z,7.20
2018-03-17T21:24:14.761Z,7.60
2018-03-17T21:26:42.883Z,6.90
2018-03-17T21:29:11.017Z,8.33
2018-03-17T21:31:39.317Z,6.53
2018-03-17T21:34:07.452Z,5.47
2018-03-17T21:36:36.329Z,6.83
2018-03-17T21:39:05.253Z,5.50
2018-03-17T21:41:33.374Z,7.70
2018-03-17T21:44:01.529Z,7.90
2018-03-17T21:46:30.441Z,7.70
2018-03-17T21:48:58.592Z,7.73
2018-03-17T21:51:26.724Z,6.20
2018-03-17T21:53:54.956Z,6.87
2018-03-17T21:56:23.063Z,6.77
2018-03-17T21:58:51.988Z,7.00
2018-03-17T22:01:20.116Z,6.50
2018-03-17T22:03:48.263Z,5.80
2018-03-17T22:06:16.374Z,6.80
2018-03-17T22:08:45.290Z,6.40
2018-03-17T22:11:13.403Z,7.40
2018-03-17T22:13:41.596Z,7.93
2018-03-17T22:16:09.698Z,5.60
2018-03-17T22:18:37.876Z,6.40
2018-03-17T22:21:05.991Z,6.43
2018-03-17T22:23:34.906Z,6.50
2018-03-17T22:26:04.033Z,6.53
2018-03-17T22:28:32.206Z,5.57
2018-03-17T22:31:00.334Z,6.37
2018-03-17T22:33:28.485Z,7.00
2018-03-17T22:35:56.604Z,6.80
2018-03-17T22:38:25.504Z,7.00
2018-03-17T22:40:54.389Z,7.43
2018-03-17T22:43:23.309Z,7.20
2018-03-17T22:45:51.429Z,6.03
2018-03-17T22:48:19.575Z,6.57
2018-03-17T22:50:47.728Z,6.73
2018-03-17T22:53:15.897Z,7.00
2018-03-17T22:55:44.003Z,5.80
2018-03-17T22:58:12.140Z,6.40
2018-03-17T23:00:40.263Z,5.57
2018-03-17T23:03:08.453Z,7.33
2018-03-17T23:05:36.559Z,7.37
2018-03-17T23:08:04.702Z,7.33
2018-03-17T23:10:32.824Z,8.17
2018-03-17T23:13:00.952Z,6.83
2018-03-17T23:15:29.055Z,6.63
2018-03-17T23:17:58.073Z,7.30
2018-03-17T23:20:26.201Z,8.23
2018-03-17T23:22:54.332Z,6.93
2018-03-17T23:25:22.445Z,6.80
2018-03-17T23:27:50.577Z,7.23
2018-03-17T23:30:18.708Z,7.23
2018-03-17T23:32:47.602Z,7.70
2018-03-17T23:35:16.491Z,6.50
2018-03-17T23:37:45.393Z,7.60
2018-03-17T23:40:13.512Z,7.33
2018-03-17T23:42:41.653Z,5.93
2018-03-17T23:45:09.773Z,6.97
2018-03-17T23:47:37.921Z,7.13
2018-03-17T23:50:06.037Z,7.90
2018-03-17T23:52:34.932Z,7.30
2018-03-17T23:55:03.822Z,6.90
2018-03-17T23:57:32.709Z,7.57
